sensor_id;sensor_type;location;lat;lon;timestamp;temperature;humidity
26964;DHT22;14521;48.148;-1.656;2023-05-10T00:01:14;21.10;93.30
26964;DHT22;14521;48.148;-1.656;2023-05-10T00:04:37;21.10;93.30
26964;DHT22;14521;48.148;-1.656;2023-05-10T00:07:59;21.10;93.10
26964;DHT22;14521;48.148;-1.656;2023-05-10T00:11:21;21.10;93.10
26964;DHT22;14521;48.148;-1.656;2023-05-10T00:14:44;21.00;93.00
26964;DHT22;14521;48.148;-1.656;2023-05-10T00:18:07;21.10;92.90
26964;DHT22;14521;48.148;-1.656;2023-05-10T00:21:29;21.00;92.90
26964;DHT22;14521;48.148;-1.656;2023-05-10T00:24:52;21.00;92.90
26964;DHT22;14521;48.148;-1.656;2023-05-10T00:28:14;21.10;92.80
26964;DHT22;14521;48.148;-1.656;2023-05-10T00:31:36;21.00;92.80
26964;DHT22;14521;48.148;-1.656;2023-05-10T00:34:58;21.00;92.80
26964;DHT22;14521;48.148;-1.656;2023-05-10T00:38:21;21.00;92.70
26964;DHT22;14521;48.148;-1.656;2023-05-10T00:41:43;21.00;92.70
26964;DHT22;14521;48.148;-1.656;2023-05-10T00:45:06;21.10;92.80
26964;DHT22;14521;48.148;-1.656;2023-05-10T00:48:30;21.00;92.70
26964;DHT22;14521;48.148;-1.656;2023-05-10T00:51:52;21.00;92.70
26964;DHT22;14521;48.148;-1.656;2023-05-10T00:55:15;21.00;92.60
26964;DHT22;14521;48.148;-1.656;2023-05-10T00:58:37;21.00;92.60
26964;DHT22;14521;48.148;-1.656;2023-05-10T01:02:00;21.00;92.40
26964;DHT22;14521;48.148;-1.656;2023-05-10T01:05:24;21.00;92.50
26964;DHT22;14521;48.148;-1.656;2023-05-10T01:08:47;21.00;92.50
26964;DHT22;14521;48.148;-1.656;2023-05-10T01:12:09;20.90;92.40
26964;DHT22;14521;48.148;-1.656;2023-05-10T01:15:32;21.00;92.50
26964;DHT22;14521;48.148;-1.656;2023-05-10T01:18:55;20.90;92.50
26964;DHT22;14521;48.148;-1.656;2023-05-10T01:26:17;20.90;92.30
26964;DHT22;14521;48.148;-1.656;2023-05-10T01:37:15;21.00;92.40
26964;DHT22;14521;48.148;-1.656;2023-05-10T01:44:37;20.90;92.50
26964;DHT22;14521;48.148;-1.656;2023-05-10T01:48:10;20.90;92.50
26964;DHT22;14521;48.148;-1.656;2023-05-10T01:51:44;20.90;92.40
26964;DHT22;14521;48.148;-1.656;2023-05-10T01:55:13;20.90;92.40
26964;DHT22;14521;48.148;-1.656;2023-05-10T01:58:38;20.80;92.40
26964;DHT22;14521;48.148;-1.656;2023-05-10T02:02:02;20.90;92.40
26964;DHT22;14521;48.148;-1.656;2023-05-10T02:05:26;20.80;92.30
26964;DHT22;14521;48.148;-1.656;2023-05-10T02:08:51;20.90;92.30
26964;DHT22;14521;48.148;-1.656;2023-05-10T02:12:15;20.80;92.30
26964;DHT22;14521;48.148;-1.656;2023-05-10T02:15:38;20.80;92.20
26964;DHT22;14521;48.148;-1.656;2023-05-10T02:19:02;20.80;92.20
26964;DHT22;14521;48.148;-1.656;2023-05-10T02:22:27;20.90;92.20
26964;DHT22;14521;48.148;-1.656;2023-05-10T02:25:51;20.80;92.20
26964;DHT22;14521;48.148;-1.656;2023-05-10T02:29:16;20.80;92.20
26964;DHT22;14521;48.148;-1.656;2023-05-10T02:32:40;20.80;92.20
26964;DHT22;14521;48.148;-1.656;2023-05-10T02:36:03;20.80;92.20
26964;DHT22;14521;48.148;-1.656;2023-05-10T02:39:27;20.80;92.10
26964;DHT22;14521;48.148;-1.656;2023-05-10T02:42:52;20.70;92.20
26964;DHT22;14521;48.148;-1.656;2023-05-10T02:46:16;20.80;92.10
26964;DHT22;14521;48.148;-1.656;2023-05-10T02:49:39;20.80;92.10
26964;DHT22;14521;48.148;-1.656;2023-05-10T02:53:06;20.70;92.10
26964;DHT22;14521;48.148;-1.656;2023-05-10T02:56:36;20.80;92.10
26964;DHT22;14521;48.148;-1.656;2023-05-10T03:00:02;20.70;92.00
26964;DHT22;14521;48.148;-1.656;2023-05-10T03:03:25;20.70;92.00
26964;DHT22;14521;48.148;-1.656;2023-05-10T03:06:48;20.80;92.00
26964;DHT22;14521;48.148;-1.656;2023-05-10T03:10:10;20.70;91.90
26964;DHT22;14521;48.148;-1.656;2023-05-10T03:17:24;20.70;91.80
26964;DHT22;14521;48.148;-1.656;2023-05-10T03:20:49;20.70;91.70
26964;DHT22;14521;48.148;-1.656;2023-05-10T03:24:13;20.80;91.70
26964;DHT22;14521;48.148;-1.656;2023-05-10T03:27:41;20.70;91.70
26964;DHT22;14521;48.148;-1.656;2023-05-10T03:31:05;20.70;91.70
26964;DHT22;14521;48.148;-1.656;2023-05-10T03:34:30;20.70;91.70
26964;DHT22;14521;48.148;-1.656;2023-05-10T03:37:53;20.70;91.70
26964;DHT22;14521;48.148;-1.656;2023-05-10T03:41:16;20.70;91.70
26964;DHT22;14521;48.148;-1.656;2023-05-10T03:44:39;20.70;91.60
26964;DHT22;14521;48.148;-1.656;2023-05-10T03:48:01;20.70;91.60
26964;DHT22;14521;48.148;-1.656;2023-05-10T03:51:24;20.70;91.60
26964;DHT22;14521;48.148;-1.656;2023-05-10T03:54:50;20.60;91.60
26964;DHT22;14521;48.148;-1.656;2023-05-10T03:58:12;20.70;91.50
26964;DHT22;14521;48.148;-1.656;2023-05-10T04:01:35;20.70;91.50
26964;DHT22;14521;48.148;-1.656;2023-05-10T04:04:57;20.60;91.50
26964;DHT22;14521;48.148;-1.656;2023-05-10T04:08:20;20.60;91.40
26964;DHT22;14521;48.148;-1.656;2023-05-10T04:11:42;20.60;91.40
26964;DHT22;14521;48.148;-1.656;2023-05-10T04:15:05;20.70;91.40
26964;DHT22;14521;48.148;-1.656;2023-05-10T04:18:28;20.70;91.40
26964;DHT22;14521;48.148;-1.656;2023-05-10T04:21:50;20.60;91.20
26964;DHT22;14521;48.148;-1.656;2023-05-10T04:25:13;20.60;91.40
26964;DHT22;14521;48.148;-1.656;2023-05-10T04:28:35;20.60;91.30
26964;DHT22;14521;48.148;-1.656;2023-05-10T04:31:57;20.60;91.30
26964;DHT22;14521;48.148;-1.656;2023-05-10T04:35:20;20.70;91.30
26964;DHT22;14521;48.148;-1.656;2023-05-10T04:38:42;20.60;91.30
26964;DHT22;14521;48.148;-1.656;2023-05-10T04:42:04;20.60;91.30
26964;DHT22;14521;48.148;-1.656;2023-05-10T04:45:27;20.60;91.30
26964;DHT22;14521;48.148;-1.656;2023-05-10T04:48:50;20.60;91.20
26964;DHT22;14521;48.148;-1.656;2023-05-10T04:52:12;20.60;91.20
26964;DHT22;14521;48.148;-1.656;2023-05-10T04:55:34;20.60;91.20
26964;DHT22;14521;48.148;-1.656;2023-05-10T04:58:57;20.50;91.20
26964;DHT22;14521;48.148;-1.656;2023-05-10T05:02:19;20.60;91.20
26964;DHT22;14521;48.148;-1.656;2023-05-10T05:05:43;20.50;91.20
26964;DHT22;14521;48.148;-1.656;2023-05-10T05:09:05;20.60;91.20
26964;DHT22;14521;48.148;-1.656;2023-05-10T05:12:27;20.60;91.20
26964;DHT22;14521;48.148;-1.656;2023-05-10T05:15:49;20.60;91.20
26964;DHT22;14521;48.148;-1.656;2023-05-10T05:19:12;20.60;91.20
26964;DHT22;14521;48.148;-1.656;2023-05-10T05:22:36;20.60;91.20
26964;DHT22;14521;48.148;-1.656;2023-05-10T05:25:58;20.60;91.10
26964;DHT22;14521;48.148;-1.656;2023-05-10T05:29:21;20.60;91.20
26964;DHT22;14521;48.148;-1.656;2023-05-10T05:32:43;20.60;91.20
26964;DHT22;14521;48.148;-1.656;2023-05-10T05:36:06;20.60;91.30
26964;DHT22;14521;48.148;-1.656;2023-05-10T05:39:28;20.60;91.40
26964;DHT22;14521;48.148;-1.656;2023-05-10T05:42:50;20.60;91.50
26964;DHT22;14521;48.148;-1.656;2023-05-10T05:46:13;20.60;91.40
26964;DHT22;14521;48.148;-1.656;2023-05-10T05:49:35;20.70;91.30
26964;DHT22;14521;48.148;-1.656;2023-05-10T05:52:57;20.70;91.40
26964;DHT22;14521;48.148;-1.656;2023-05-10T05:56:19;20.70;91.60
26964;DHT22;14521;48.148;-1.656;2023-05-10T05:59:46;20.80;91.40
26964;DHT22;14521;48.148;-1.656;2023-05-10T06:03:08;20.80;91.30
26964;DHT22;14521;48.148;-1.656;2023-05-10T06:06:30;20.90;91.30
26964;DHT22;14521;48.148;-1.656;2023-05-10T06:09:54;20.90;91.60
26964;DHT22;14521;48.148;-1.656;2023-05-10T06:13:16;20.90;91.90
26964;DHT22;14521;48.148;-1.656;2023-05-10T06:16:39;20.90;91.70
26964;DHT22;14521;48.148;-1.656;2023-05-10T06:20:01;20.90;91.50
26964;DHT22;14521;48.148;-1.656;2023-05-10T06:23:23;21.00;92.00
26964;DHT22;14521;48.148;-1.656;2023-05-10T06:26:47;21.00;91.50
26964;DHT22;14521;48.148;-1.656;2023-05-10T06:30:12;21.00;91.70
26964;DHT22;14521;48.148;-1.656;2023-05-10T06:33:35;21.00;91.80
26964;DHT22;14521;48.148;-1.656;2023-05-10T06:36:57;21.10;92.20
26964;DHT22;14521;48.148;-1.656;2023-05-10T06:40:20;21.20;92.50
26964;DHT22;14521;48.148;-1.656;2023-05-10T06:43:42;21.20;92.60
26964;DHT22;14521;48.148;-1.656;2023-05-10T06:47:05;21.20;92.70
26964;DHT22;14521;48.148;-1.656;2023-05-10T06:50:27;21.20;92.10
26964;DHT22;14521;48.148;-1.656;2023-05-10T06:53:50;21.10;92.00
26964;DHT22;14521;48.148;-1.656;2023-05-10T06:57:12;21.20;92.70
26964;DHT22;14521;48.148;-1.656;2023-05-10T07:00:52;21.10;92.60
26964;DHT22;14521;48.148;-1.656;2023-05-10T07:04:15;21.10;91.70
26964;DHT22;14521;48.148;-1.656;2023-05-10T07:07:37;21.20;92.50
26964;DHT22;14521;48.148;-1.656;2023-05-10T07:11:03;21.20;92.70
26964;DHT22;14521;48.148;-1.656;2023-05-10T07:14:26;21.20;92.50
26964;DHT22;14521;48.148;-1.656;2023-05-10T07:17:48;21.20;92.60
26964;DHT22;14521;48.148;-1.656;2023-05-10T07:21:11;21.20;92.80
26964;DHT22;14521;48.148;-1.656;2023-05-10T07:24:33;21.20;92.00
26964;DHT22;14521;48.148;-1.656;2023-05-10T07:27:56;21.20;92.70
26964;DHT22;14521;48.148;-1.656;2023-05-10T07:31:18;21.20;92.50
26964;DHT22;14521;48.148;-1.656;2023-05-10T07:34:40;21.20;91.60
26964;DHT22;14521;48.148;-1.656;2023-05-10T07:38:03;21.20;92.30
26964;DHT22;14521;48.148;-1.656;2023-05-10T07:41:25;21.20;92.20
26964;DHT22;14521;48.148;-1.656;2023-05-10T07:44:48;21.20;92.30
26964;DHT22;14521;48.148;-1.656;2023-05-10T07:48:10;21.10;92.50
26964;DHT22;14521;48.148;-1.656;2023-05-10T07:51:32;21.10;92.30
26964;DHT22;14521;48.148;-1.656;2023-05-10T07:54:54;21.20;92.30
26964;DHT22;14521;48.148;-1.656;2023-05-10T07:58:18;21.20;92.40
26964;DHT22;14521;48.148;-1.656;2023-05-10T08:01:42;21.10;92.10
26964;DHT22;14521;48.148;-1.656;2023-05-10T08:05:05;21.10;91.90
26964;DHT22;14521;48.148;-1.656;2023-05-10T08:08:27;21.10;92.50
26964;DHT22;14521;48.148;-1.656;2023-05-10T08:11:50;21.10;92.50
26964;DHT22;14521;48.148;-1.656;2023-05-10T08:15:12;21.10;92.40
26964;DHT22;14521;48.148;-1.656;2023-05-10T08:18:34;21.10;91.90
26964;DHT22;14521;48.148;-1.656;2023-05-10T08:21:57;21.10;91.40
26964;DHT22;14521;48.148;-1.656;2023-05-10T08:25:19;21.00;91.70
26964;DHT22;14521;48.148;-1.656;2023-05-10T08:28:41;21.00;91.80
26964;DHT22;14521;48.148;-1.656;2023-05-10T08:32:04;21.00;92.20
26964;DHT22;14521;48.148;-1.656;2023-05-10T08:35:26;21.10;91.80
26964;DHT22;14521;48.148;-1.656;2023-05-10T08:38:50;21.00;92.30
26964;DHT22;14521;48.148;-1.656;2023-05-10T08:42:19;21.00;94.20
26964;DHT22;14521;48.148;-1.656;2023-05-10T08:45:44;21.00;94.30
26964;DHT22;14521;48.148;-1.656;2023-05-10T08:49:13;21.00;93.90
26964;DHT22;14521;48.148;-1.656;2023-05-10T08:52:39;21.10;93.90
26964;DHT22;14521;48.148;-1.656;2023-05-10T08:56:03;21.10;93.70
26964;DHT22;14521;48.148;-1.656;2023-05-10T08:59:25;21.10;93.60
26964;DHT22;14521;48.148;-1.656;2023-05-10T09:02:49;21.10;93.60
26964;DHT22;14521;48.148;-1.656;2023-05-10T09:06:12;21.20;93.70
26964;DHT22;14521;48.148;-1.656;2023-05-10T09:09:35;21.10;93.40
26964;DHT22;14521;48.148;-1.656;2023-05-10T09:12:59;21.10;93.60
26964;DHT22;14521;48.148;-1.656;2023-05-10T09:16:21;21.00;93.90
26964;DHT22;14521;48.148;-1.656;2023-05-10T09:19:45;21.00;93.90
26964;DHT22;14521;48.148;-1.656;2023-05-10T09:23:07;21.00;93.80
26964;DHT22;14521;48.148;-1.656;2023-05-10T09:26:29;21.00;93.80
26964;DHT22;14521;48.148;-1.656;2023-05-10T09:29:52;21.00;93.60
26964;DHT22;14521;48.148;-1.656;2023-05-10T09:33:18;21.00;93.60
26964;DHT22;14521;48.148;-1.656;2023-05-10T09:36:51;21.00;93.70
26964;DHT22;14521;48.148;-1.656;2023-05-10T09:40:15;21.00;94.00
26964;DHT22;14521;48.148;-1.656;2023-05-10T09:43:38;21.00;93.40
26964;DHT22;14521;48.148;-1.656;2023-05-10T09:47:01;21.00;93.40
26964;DHT22;14521;48.148;-1.656;2023-05-10T09:50:23;21.10;93.40
26964;DHT22;14521;48.148;-1.656;2023-05-10T09:53:46;21.10;93.50
26964;DHT22;14521;48.148;-1.656;2023-05-10T09:57:19;21.20;93.40
26964;DHT22;14521;48.148;-1.656;2023-05-10T10:00:44;21.20;93.10
26964;DHT22;14521;48.148;-1.656;2023-05-10T10:04:08;21.20;93.20
26964;DHT22;14521;48.148;-1.656;2023-05-10T10:07:31;21.20;93.20
26964;DHT22;14521;48.148;-1.656;2023-05-10T10:10:54;21.20;93.20
26964;DHT22;14521;48.148;-1.656;2023-05-10T10:14:18;21.20;93.20
26964;DHT22;14521;48.148;-1.656;2023-05-10T10:17:41;21.20;93.20
26964;DHT22;14521;48.148;-1.656;2023-05-10T10:21:06;21.30;92.90
26964;DHT22;14521;48.148;-1.656;2023-05-10T10:24:30;21.30;92.60
26964;DHT22;14521;48.148;-1.656;2023-05-10T10:31:55;21.40;93.70
26964;DHT22;14521;48.148;-1.656;2023-05-10T10:35:21;21.50;93.70
26964;DHT22;14521;48.148;-1.656;2023-05-10T10:42:08;21.50;93.90
26964;DHT22;14521;48.148;-1.656;2023-05-10T10:45:30;21.50;93.90
26964;DHT22;14521;48.148;-1.656;2023-05-10T10:49:09;21.60;94.00
26964;DHT22;14521;48.148;-1.656;2023-05-10T10:56:11;21.60;93.20
26964;DHT22;14521;48.148;-1.656;2023-05-10T10:59:35;21.60;94.00
26964;DHT22;14521;48.148;-1.656;2023-05-10T11:02:59;21.50;93.50
26964;DHT22;14521;48.148;-1.656;2023-05-10T11:06:36;21.50;93.10
26964;DHT22;14521;48.148;-1.656;2023-05-10T11:10:04;21.50;93.60
26964;DHT22;14521;48.148;-1.656;2023-05-10T11:13:29;21.50;92.90
26964;DHT22;14521;48.148;-1.656;2023-05-10T11:16:52;21.50;93.90
26964;DHT22;14521;48.148;-1.656;2023-05-10T11:20:15;21.40;94.70
26964;DHT22;14521;48.148;-1.656;2023-05-10T11:27:09;21.40;94.80
26964;DHT22;14521;48.148;-1.656;2023-05-10T11:30:33;21.40;94.10
26964;DHT22;14521;48.148;-1.656;2023-05-10T11:33:59;21.30;93.60
26964;DHT22;14521;48.148;-1.656;2023-05-10T11:37:23;21.30;93.80
26964;DHT22;14521;48.148;-1.656;2023-05-10T11:40:45;21.20;94.00
26964;DHT22;14521;48.148;-1.656;2023-05-10T11:44:09;21.30;94.10
26964;DHT22;14521;48.148;-1.656;2023-05-10T11:47:31;21.20;94.00
26964;DHT22;14521;48.148;-1.656;2023-05-10T11:50:54;21.20;94.30
26964;DHT22;14521;48.148;-1.656;2023-05-10T11:54:18;21.20;94.30
26964;DHT22;14521;48.148;-1.656;2023-05-10T11:57:41;21.20;94.40
26964;DHT22;14521;48.148;-1.656;2023-05-10T12:01:07;21.20;94.50
26964;DHT22;14521;48.148;-1.656;2023-05-10T12:04:29;21.20;94.40
26964;DHT22;14521;48.148;-1.656;2023-05-10T12:07:52;21.20;94.60
26964;DHT22;14521;48.148;-1.656;2023-05-10T12:11:14;21.20;94.60
26964;DHT22;14521;48.148;-1.656;2023-05-10T12:14:37;21.10;94.60
26964;DHT22;14521;48.148;-1.656;2023-05-10T12:18:00;21.20;94.50
26964;DHT22;14521;48.148;-1.656;2023-05-10T12:21:23;21.20;94.50
26964;DHT22;14521;48.148;-1.656;2023-05-10T12:24:46;21.10;94.60
26964;DHT22;14521;48.148;-1.656;2023-05-10T12:28:09;21.10;94.50
26964;DHT22;14521;48.148;-1.656;2023-05-10T12:31:31;21.10;94.50
26964;DHT22;14521;48.148;-1.656;2023-05-10T12:34:54;21.10;94.50
26964;DHT22;14521;48.148;-1.656;2023-05-10T12:38:32;21.10;94.60
26964;DHT22;14521;48.148;-1.656;2023-05-10T12:41:54;21.10;94.50
26964;DHT22;14521;48.148;-1.656;2023-05-10T12:45:17;21.10;94.50
26964;DHT22;14521;48.148;-1.656;2023-05-10T12:48:41;21.10;94.50
26964;DHT22;14521;48.148;-1.656;2023-05-10T12:52:04;21.10;94.50
26964;DHT22;14521;48.148;-1.656;2023-05-10T12:55:26;21.10;94.60
26964;DHT22;14521;48.148;-1.656;2023-05-10T12:58:48;21.10;94.50
26964;DHT22;14521;48.148;-1.656;2023-05-10T13:02:10;21.10;94.80
26964;DHT22;14521;48.148;-1.656;2023-05-10T13:05:33;21.10;94.90
26964;DHT22;14521;48.148;-1.656;2023-05-10T13:08:55;21.20;94.80
26964;DHT22;14521;48.148;-1.656;2023-05-10T13:12:19;21.20;94.50
26964;DHT22;14521;48.148;-1.656;2023-05-10T13:15:41;21.20;93.00
26964;DHT22;14521;48.148;-1.656;2023-05-10T13:19:04;21.20;93.00
26964;DHT22;14521;48.148;-1.656;2023-05-10T13:22:26;21.20;93.10
26964;DHT22;14521;48.148;-1.656;2023-05-10T13:26:01;21.20;93.20
26964;DHT22;14521;48.148;-1.656;2023-05-10T13:29:23;21.30;93.30
26964;DHT22;14521;48.148;-1.656;2023-05-10T13:32:45;21.20;93.20
26964;DHT22;14521;48.148;-1.656;2023-05-10T13:36:08;21.20;93.20
26964;DHT22;14521;48.148;-1.656;2023-05-10T13:39:31;21.20;93.20
26964;DHT22;14521;48.148;-1.656;2023-05-10T13:42:56;21.10;94.30
26964;DHT22;14521;48.148;-1.656;2023-05-10T13:46:18;21.10;94.40
26964;DHT22;14521;48.148;-1.656;2023-05-10T13:49:41;21.10;94.40
26964;DHT22;14521;48.148;-1.656;2023-05-10T13:53:03;21.00;94.30
26964;DHT22;14521;48.148;-1.656;2023-05-10T13:56:25;21.00;94.30
26964;DHT22;14521;48.148;-1.656;2023-05-10T13:59:48;21.00;94.30
26964;DHT22;14521;48.148;-1.656;2023-05-10T14:03:10;21.00;94.20
26964;DHT22;14521;48.148;-1.656;2023-05-10T14:06:33;21.00;94.30
26964;DHT22;14521;48.148;-1.656;2023-05-10T14:09:56;21.00;94.20
26964;DHT22;14521;48.148;-1.656;2023-05-10T14:13:18;21.00;94.20
26964;DHT22;14521;48.148;-1.656;2023-05-10T14:16:44;21.00;94.10
26964;DHT22;14521;48.148;-1.656;2023-05-10T14:20:07;21.00;94.10
26964;DHT22;14521;48.148;-1.656;2023-05-10T14:23:30;21.00;94.20
26964;DHT22;14521;48.148;-1.656;2023-05-10T14:26:52;21.00;94.10
26964;DHT22;14521;48.148;-1.656;2023-05-10T14:30:15;21.00;94.10
26964;DHT22;14521;48.148;-1.656;2023-05-10T14:33:38;21.00;94.10
26964;DHT22;14521;48.148;-1.656;2023-05-10T14:37:00;21.00;94.10
26964;DHT22;14521;48.148;-1.656;2023-05-10T14:40:23;21.00;94.10
26964;DHT22;14521;48.148;-1.656;2023-05-10T14:43:45;21.10;94.10
26964;DHT22;14521;48.148;-1.656;2023-05-10T14:47:07;21.00;94.10
26964;DHT22;14521;48.148;-1.656;2023-05-10T14:50:32;21.00;94.20
26964;DHT22;14521;48.148;-1.656;2023-05-10T14:53:58;20.90;94.20
26964;DHT22;14521;48.148;-1.656;2023-05-10T14:57:21;21.00;94.20
26964;DHT22;14521;48.148;-1.656;2023-05-10T15:00:43;21.00;94.30
26964;DHT22;14521;48.148;-1.656;2023-05-10T15:04:06;21.00;94.30
26964;DHT22;14521;48.148;-1.656;2023-05-10T15:07:28;20.90;94.30
26964;DHT22;14521;48.148;-1.656;2023-05-10T15:10:51;21.00;94.30
26964;DHT22;14521;48.148;-1.656;2023-05-10T15:14:14;20.90;94.20
26964;DHT22;14521;48.148;-1.656;2023-05-10T15:17:36;21.00;94.30
26964;DHT22;14521;48.148;-1.656;2023-05-10T15:20:58;20.90;94.30
26964;DHT22;14521;48.148;-1.656;2023-05-10T15:24:21;21.00;94.30
26964;DHT22;14521;48.148;-1.656;2023-05-10T15:27:43;21.00;94.30
26964;DHT22;14521;48.148;-1.656;2023-05-10T15:31:06;21.00;94.40
26964;DHT22;14521;48.148;-1.656;2023-05-10T15:34:28;20.90;94.30
26964;DHT22;14521;48.148;-1.656;2023-05-10T15:37:54;21.00;94.30
26964;DHT22;14521;48.148;-1.656;2023-05-10T15:41:16;20.90;94.30
26964;DHT22;14521;48.148;-1.656;2023-05-10T15:44:39;20.90;94.30
26964;DHT22;14521;48.148;-1.656;2023-05-10T15:48:01;21.00;94.30
26964;DHT22;14521;48.148;-1.656;2023-05-10T15:51:23;21.00;94.30
26964;DHT22;14521;48.148;-1.656;2023-05-10T15:54:45;21.00;94.20
26964;DHT22;14521;48.148;-1.656;2023-05-10T15:58:08;21.00;94.20
26964;DHT22;14521;48.148;-1.656;2023-05-10T16:01:30;21.00;94.10
26964;DHT22;14521;48.148;-1.656;2023-05-10T16:04:53;21.00;94.10
26964;DHT22;14521;48.148;-1.656;2023-05-10T16:08:16;21.00;93.90
26964;DHT22;14521;48.148;-1.656;2023-05-10T16:11:38;21.00;94.00
26964;DHT22;14521;48.148;-1.656;2023-05-10T16:15:01;21.00;94.00
26964;DHT22;14521;48.148;-1.656;2023-05-10T16:18:23;21.00;94.00
26964;DHT22;14521;48.148;-1.656;2023-05-10T16:21:46;20.90;93.90
26964;DHT22;14521;48.148;-1.656;2023-05-10T16:25:09;21.00;93.90
26964;DHT22;14521;48.148;-1.656;2023-05-10T16:28:34;21.00;94.00
26964;DHT22;14521;48.148;-1.656;2023-05-10T16:31:57;21.00;94.00
26964;DHT22;14521;48.148;-1.656;2023-05-10T16:35:19;21.00;93.90
26964;DHT22;14521;48.148;-1.656;2023-05-10T16:38:41;21.00;93.90
26964;DHT22;14521;48.148;-1.656;2023-05-10T16:42:04;21.00;94.00
26964;DHT22;14521;48.148;-1.656;2023-05-10T16:45:26;21.00;94.00
26964;DHT22;14521;48.148;-1.656;2023-05-10T16:48:48;20.90;94.00
26964;DHT22;14521;48.148;-1.656;2023-05-10T16:52:11;21.00;94.00
26964;DHT22;14521;48.148;-1.656;2023-05-10T16:55:33;21.00;93.90
26964;DHT22;14521;48.148;-1.656;2023-05-10T16:58:55;21.00;94.10
26964;DHT22;14521;48.148;-1.656;2023-05-10T17:02:18;21.00;94.30
26964;DHT22;14521;48.148;-1.656;2023-05-10T17:05:41;21.00;94.80
26964;DHT22;14521;48.148;-1.656;2023-05-10T17:09:04;21.00;95.80
26964;DHT22;14521;48.148;-1.656;2023-05-10T17:12:26;21.10;95.60
26964;DHT22;14521;48.148;-1.656;2023-05-10T17:15:49;21.10;95.30
26964;DHT22;14521;48.148;-1.656;2023-05-10T17:19:11;21.10;96.00
26964;DHT22;14521;48.148;-1.656;2023-05-10T17:22:33;21.10;94.90
26964;DHT22;14521;48.148;-1.656;2023-05-10T17:25:56;21.00;94.90
26964;DHT22;14521;48.148;-1.656;2023-05-10T17:29:22;21.10;95.50
26964;DHT22;14521;48.148;-1.656;2023-05-10T17:32:44;21.00;94.10
26964;DHT22;14521;48.148;-1.656;2023-05-10T17:36:07;21.00;94.00
26964;DHT22;14521;48.148;-1.656;2023-05-10T17:39:29;20.90;93.60
26964;DHT22;14521;48.148;-1.656;2023-05-10T17:42:51;20.80;93.60
26964;DHT22;14521;48.148;-1.656;2023-05-10T17:46:13;20.70;93.80
26964;DHT22;14521;48.148;-1.656;2023-05-10T17:49:36;20.80;94.00
26964;DHT22;14521;48.148;-1.656;2023-05-10T17:52:58;20.80;93.50
26964;DHT22;14521;48.148;-1.656;2023-05-10T17:56:21;20.70;94.20
26964;DHT22;14521;48.148;-1.656;2023-05-10T17:59:43;20.70;93.40
26964;DHT22;14521;48.148;-1.656;2023-05-10T18:03:06;20.80;92.80
26964;DHT22;14521;48.148;-1.656;2023-05-10T18:06:28;20.70;93.00
26964;DHT22;14521;48.148;-1.656;2023-05-10T18:09:50;20.70;93.30
26964;DHT22;14521;48.148;-1.656;2023-05-10T18:13:12;20.70;92.90
26964;DHT22;14521;48.148;-1.656;2023-05-10T18:16:35;20.70;93.30
26964;DHT22;14521;48.148;-1.656;2023-05-10T18:19:57;20.80;94.30
26964;DHT22;14521;48.148;-1.656;2023-05-10T18:23:19;20.90;94.50
26964;DHT22;14521;48.148;-1.656;2023-05-10T18:26:42;20.90;94.50
26964;DHT22;14521;48.148;-1.656;2023-05-10T18:30:05;20.90;94.40
26964;DHT22;14521;48.148;-1.656;2023-05-10T18:33:30;21.00;94.80
26964;DHT22;14521;48.148;-1.656;2023-05-10T18:36:53;21.00;95.20
26964;DHT22;14521;48.148;-1.656;2023-05-10T18:40:16;21.10;94.30
26964;DHT22;14521;48.148;-1.656;2023-05-10T18:43:38;21.10;95.30
26964;DHT22;14521;48.148;-1.656;2023-05-10T18:47:02;21.10;95.10
26964;DHT22;14521;48.148;-1.656;2023-05-10T18:50:24;21.20;94.30
26964;DHT22;14521;48.148;-1.656;2023-05-10T18:53:47;21.20;95.50
26964;DHT22;14521;48.148;-1.656;2023-05-10T18:57:10;21.20;95.70
26964;DHT22;14521;48.148;-1.656;2023-05-10T19:00:33;21.10;94.80
26964;DHT22;14521;48.148;-1.656;2023-05-10T19:03:55;20.90;95.40
26964;DHT22;14521;48.148;-1.656;2023-05-10T19:07:17;20.90;94.70
26964;DHT22;14521;48.148;-1.656;2023-05-10T19:10:40;20.90;95.10
26964;DHT22;14521;48.148;-1.656;2023-05-10T19:14:02;20.80;95.40
26964;DHT22;14521;48.148;-1.656;2023-05-10T19:17:26;20.80;95.50
26964;DHT22;14521;48.148;-1.656;2023-05-10T19:20:53;20.80;94.70
26964;DHT22;14521;48.148;-1.656;2023-05-10T19:24:17;20.80;95.40
26964;DHT22;14521;48.148;-1.656;2023-05-10T19:27:40;20.80;95.30
26964;DHT22;14521;48.148;-1.656;2023-05-10T19:31:03;20.80;95.40
26964;DHT22;14521;48.148;-1.656;2023-05-10T19:34:25;20.80;95.00
26964;DHT22;14521;48.148;-1.656;2023-05-10T19:37:48;20.70;94.90
26964;DHT22;14521;48.148;-1.656;2023-05-10T19:41:11;20.70;95.40
26964;DHT22;14521;48.148;-1.656;2023-05-10T19:44:34;20.70;95.90
26964;DHT22;14521;48.148;-1.656;2023-05-10T19:47:56;20.80;96.00
26964;DHT22;14521;48.148;-1.656;2023-05-10T19:51:19;20.90;96.10
26964;DHT22;14521;48.148;-1.656;2023-05-10T19:54:41;20.90;95.80
26964;DHT22;14521;48.148;-1.656;2023-05-10T19:58:05;21.00;95.90
26964;DHT22;14521;48.148;-1.656;2023-05-10T20:01:27;21.00;96.00
26964;DHT22;14521;48.148;-1.656;2023-05-10T20:04:50;21.00;95.90
26964;DHT22;14521;48.148;-1.656;2023-05-10T20:08:12;21.00;95.80
26964;DHT22;14521;48.148;-1.656;2023-05-10T20:11:34;21.00;95.80
26964;DHT22;14521;48.148;-1.656;2023-05-10T20:14:57;21.10;95.70
26964;DHT22;14521;48.148;-1.656;2023-05-10T20:18:19;21.10;96.00
26964;DHT22;14521;48.148;-1.656;2023-05-10T20:21:41;21.10;95.80
26964;DHT22;14521;48.148;-1.656;2023-05-10T20:25:04;21.10;96.20
26964;DHT22;14521;48.148;-1.656;2023-05-10T20:28:27;21.10;96.30
26964;DHT22;14521;48.148;-1.656;2023-05-10T20:31:49;21.10;96.40
26964;DHT22;14521;48.148;-1.656;2023-05-10T20:35:12;21.10;96.40
26964;DHT22;14521;48.148;-1.656;2023-05-10T20:38:35;21.10;96.50
26964;DHT22;14521;48.148;-1.656;2023-05-10T20:41:57;21.10;96.50
26964;DHT22;14521;48.148;-1.656;2023-05-10T20:45:21;21.10;96.50
26964;DHT22;14521;48.148;-1.656;2023-05-10T20:48:43;21.10;95.90
26964;DHT22;14521;48.148;-1.656;2023-05-10T20:52:05;21.10;96.60
26964;DHT22;14521;48.148;-1.656;2023-05-10T20:55:28;21.00;96.40
26964;DHT22;14521;48.148;-1.656;2023-05-10T20:58:50;21.00;96.40
26964;DHT22;14521;48.148;-1.656;2023-05-10T21:02:12;20.90;95.60
26964;DHT22;14521;48.148;-1.656;2023-05-10T21:05:35;21.00;95.90
26964;DHT22;14521;48.148;-1.656;2023-05-10T21:08:57;21.00;96.10
26964;DHT22;14521;48.148;-1.656;2023-05-10T21:12:20;21.00;95.80
26964;DHT22;14521;48.148;-1.656;2023-05-10T21:15:42;21.00;95.90
26964;DHT22;14521;48.148;-1.656;2023-05-10T21:19:04;21.10;95.90
26964;DHT22;14521;48.148;-1.656;2023-05-10T21:22:28;21.00;95.70
26964;DHT22;14521;48.148;-1.656;2023-05-10T21:25:51;21.00;95.50
26964;DHT22;14521;48.148;-1.656;2023-05-10T21:29:13;21.00;95.40
26964;DHT22;14521;48.148;-1.656;2023-05-10T21:32:36;21.00;95.30
26964;DHT22;14521;48.148;-1.656;2023-05-10T21:35:58;21.00;95.30